createdAt,value
2023-05-10T00:00:17.610Z,0.75
2023-05-10T00:02:44.352Z,0.69
2023-05-10T00:05:10.941Z,0.70
2023-05-10T00:07:37.486Z,0.62
2023-05-10T00:10:04.154Z,0.76
2023-05-10T00:12:30.732Z,0.88
2023-05-10T00:14:57.203Z,0.75
2023-05-10T00:17:26.924Z,0.63
2023-05-10T00:19:53.518Z,0.75
2023-05-10T00:22:20.029Z,0.90
2023-05-10T00:24:46.551Z,0.77
2023-05-10T00:27:12.985Z,0.79
2023-05-10T00:29:39.573Z,0.85
2023-05-10T00:32:06.151Z,0.78
2023-05-10T00:34:32.760Z,0.81
2023-05-10T00:36:59.240Z,0.79
2023-05-10T00:39:25.735Z,0.85
2023-05-10T00:41:52.195Z,0.91
2023-05-10T00:44:18.723Z,0.78
2023-05-10T00:46:45.865Z,0.78
2023-05-10T00:49:12.771Z,0.75
2023-05-10T00:51:39.257Z,0.75
2023-05-10T00:54:06.248Z,0.71
2023-05-10T00:56:32.748Z,0.74
2023-05-10T00:58:59.200Z,0.72
2023-05-10T01:01:26.000Z,0.76
2023-05-10T01:03:52.709Z,0.80
2023-05-10T01:06:19.162Z,0.70
2023-05-10T01:08:45.791Z,0.72
2023-05-10T01:11:12.330Z,0.72
2023-05-10T01:13:42.928Z,0.69
2023-05-10T01:16:09.513Z,0.59
2023-05-10T01:18:39.986Z,0.74
2023-05-10T01:21:32.752Z,0.71
2023-05-10T01:24:36.762Z,0.76
2023-05-10T01:27:36.956Z,0.76
2023-05-10T01:30:14.627Z,0.80
2023-05-10T01:33:12.950Z,0.72
2023-05-10T01:35:48.428Z,0.80
2023-05-10T01:38:26.670Z,0.72
2023-05-10T01:41:08.671Z,0.83
2023-05-10T01:43:49.160Z,0.70
2023-05-10T01:46:25.451Z,0.73
2023-05-10T01:48:59.690Z,0.69
2023-05-10T01:51:35.691Z,0.63
2023-05-10T01:54:04.616Z,0.65
2023-05-10T01:56:35.748Z,0.61
2023-05-10T01:59:12.236Z,0.68
2023-05-10T02:01:40.042Z,0.57
2023-05-10T02:04:09.538Z,0.57
2023-05-10T02:06:39.260Z,0.67
2023-05-10T02:09:08.368Z,0.71
2023-05-10T02:11:35.875Z,0.64
2023-05-10T02:14:03.174Z,0.62
2023-05-10T02:16:32.367Z,0.65
2023-05-10T02:19:02.312Z,0.59
2023-05-10T02:21:31.111Z,0.50
2023-05-10T02:23:59.961Z,0.54
2023-05-10T02:26:28.626Z,0.53
2023-05-10T02:28:57.863Z,0.54
2023-05-10T02:31:26.550Z,0.53
2023-05-10T02:33:55.771Z,0.62
2023-05-10T02:36:24.055Z,0.53
2023-05-10T02:38:53.488Z,0.57
2023-05-10T02:41:22.523Z,0.59
2023-05-10T02:43:53.431Z,0.59
2023-05-10T02:46:20.058Z,0.64
2023-05-10T02:48:46.630Z,0.61
2023-05-10T02:51:18.734Z,0.68
2023-05-10T02:53:50.246Z,0.58
2023-05-10T02:56:33.887Z,0.69
2023-05-10T02:59:00.483Z,0.66
2023-05-10T03:01:27.021Z,0.68
2023-05-10T03:03:53.517Z,0.80
2023-05-10T03:06:20.050Z,0.75
2023-05-10T03:08:46.705Z,0.76
2023-05-10T03:11:34.360Z,0.76
2023-05-10T03:14:09.638Z,0.75
2023-05-10T03:16:56.959Z,0.67
2023-05-10T03:19:35.374Z,0.76
2023-05-10T03:22:11.508Z,0.70
2023-05-10T03:24:42.056Z,0.80
2023-05-10T03:27:09.578Z,0.70
2023-05-10T03:29:38.886Z,0.67
2023-05-10T03:32:05.654Z,0.76
2023-05-10T03:34:32.120Z,0.80
2023-05-10T03:36:58.565Z,0.66
2023-05-10T03:39:25.110Z,0.76
2023-05-10T03:41:51.576Z,0.70
2023-05-10T03:44:18.554Z,1.03
2023-05-10T03:46:45.072Z,0.76
2023-05-10T03:49:11.563Z,0.83
2023-05-10T03:51:38.144Z,0.79
2023-05-10T03:54:04.696Z,0.79
2023-05-10T03:56:31.167Z,0.77
2023-05-10T03:58:57.656Z,0.70
2023-05-10T04:01:24.373Z,0.77
2023-05-10T04:03:50.908Z,0.70
2023-05-10T04:06:17.484Z,0.74
2023-05-10T04:08:44.051Z,0.77
2023-05-10T04:11:12.530Z,0.73
2023-05-10T04:13:39.020Z,0.71
2023-05-10T04:16:05.887Z,0.72
2023-05-10T04:18:32.371Z,0.64
2023-05-10T04:20:58.842Z,0.75
2023-05-10T04:23:25.346Z,0.69
2023-05-10T04:25:51.853Z,0.54
2023-05-10T04:28:18.305Z,0.63
2023-05-10T04:30:44.876Z,0.57
2023-05-10T04:33:11.385Z,0.60
2023-05-10T04:35:37.821Z,0.68
2023-05-10T04:38:04.393Z,0.56
2023-05-10T04:40:30.861Z,0.67
2023-05-10T04:42:57.314Z,0.68
2023-05-10T04:45:26.722Z,0.66
2023-05-10T04:47:53.197Z,0.54
2023-05-10T04:50:19.662Z,0.55
2023-05-10T04:52:46.174Z,0.55
2023-05-10T04:55:15.159Z,0.49
2023-05-10T04:57:44.404Z,0.51
2023-05-10T05:00:11.522Z,0.51
2023-05-10T05:02:38.093Z,0.51
2023-05-10T05:05:04.929Z,0.36
2023-05-10T05:07:31.403Z,0.48
2023-05-10T05:09:57.843Z,0.45
2023-05-10T05:12:24.353Z,0.48
2023-05-10T05:14:50.826Z,0.50
2023-05-10T05:17:17.278Z,0.51
2023-05-10T05:19:43.746Z,0.79
2023-05-10T05:22:10.321Z,0.66
2023-05-10T05:24:37.098Z,0.80
2023-05-10T05:27:03.623Z,0.73
2023-05-10T05:29:30.175Z,1.23
2023-05-10T05:31:56.699Z,0.92
2023-05-10T05:34:23.241Z,1.03
2023-05-10T05:36:49.794Z,1.07
2023-05-10T05:39:16.524Z,1.05
2023-05-10T05:41:43.036Z,0.93
2023-05-10T05:44:09.506Z,1.49
2023-05-10T05:46:35.954Z,1.12
2023-05-10T05:49:02.417Z,1.13
2023-05-10T05:51:28.948Z,1.00
2023-05-10T05:53:56.030Z,1.00
2023-05-10T05:56:22.607Z,0.84
2023-05-10T05:58:49.114Z,0.97
2023-05-10T06:01:15.616Z,0.84
2023-05-10T06:03:42.331Z,0.79
2023-05-10T06:06:09.031Z,0.84
2023-05-10T06:08:35.491Z,0.94
2023-05-10T06:11:02.282Z,1.22
2023-05-10T06:13:28.981Z,1.35
2023-05-10T06:15:55.554Z,1.04
2023-05-10T06:18:22.063Z,1.03
2023-05-10T06:20:50.165Z,1.13
2023-05-10T06:23:19.178Z,1.10
2023-05-10T06:25:45.658Z,1.08
2023-05-10T06:28:12.129Z,1.08
2023-05-10T06:30:41.824Z,0.95
2023-05-10T06:33:08.480Z,0.89
2023-05-10T06:35:35.055Z,1.12
2023-05-10T06:38:01.626Z,1.05
2023-05-10T06:40:28.201Z,1.11
2023-05-10T06:42:54.685Z,1.18
2023-05-10T06:45:21.397Z,1.22
2023-05-10T06:47:47.988Z,1.20
2023-05-10T06:50:14.579Z,1.20
2023-05-10T06:52:41.245Z,0.96
2023-05-10T06:55:08.192Z,1.17
2023-05-10T06:57:34.687Z,1.09
2023-05-10T07:00:01.354Z,1.10
2023-05-10T07:02:27.970Z,1.11
2023-05-10T07:04:54.585Z,1.06
2023-05-10T07:07:21.175Z,0.98
2023-05-10T07:09:47.691Z,1.04
2023-05-10T07:12:15.406Z,1.04
2023-05-10T07:14:43.242Z,1.10
2023-05-10T07:17:12.971Z,1.14
2023-05-10T07:19:39.615Z,0.95
2023-05-10T07:22:06.116Z,0.84
2023-05-10T07:24:33.553Z,1.04
2023-05-10T07:27:00.315Z,0.95
2023-05-10T07:29:26.952Z,0.93
2023-05-10T07:31:53.858Z,1.14
2023-05-10T07:34:21.296Z,0.98
2023-05-10T07:36:47.805Z,1.16
2023-05-10T07:39:18.662Z,1.06
2023-05-10T07:41:52.839Z,1.14
2023-05-10T07:44:19.357Z,1.14
2023-05-10T07:46:45.830Z,1.11
2023-05-10T07:49:12.442Z,0.96
2023-05-10T07:51:38.983Z,1.23
2023-05-10T07:54:05.562Z,1.21
2023-05-10T07:56:33.099Z,1.28
2023-05-10T07:59:00.424Z,1.40
2023-05-10T08:01:32.043Z,1.43
2023-05-10T08:03:58.526Z,1.25
2023-05-10T08:06:25.051Z,1.17
2023-05-10T08:08:51.673Z,1.24
2023-05-10T08:11:18.552Z,1.24
2023-05-10T08:13:49.867Z,1.00
2023-05-10T08:16:17.469Z,1.12
2023-05-10T08:18:45.945Z,0.98
2023-05-10T08:21:12.484Z,1.16
2023-05-10T08:23:38.965Z,1.10
2023-05-10T08:26:05.525Z,1.03
2023-05-10T08:28:32.268Z,1.06
2023-05-10T08:30:58.840Z,0.87
2023-05-10T08:33:25.352Z,0.68
2023-05-10T08:35:51.823Z,0.76
2023-05-10T08:38:18.999Z,0.67
2023-05-10T08:40:45.965Z,0.65
2023-05-10T08:43:14.077Z,0.64
2023-05-10T08:45:43.771Z,0.68
2023-05-10T08:48:11.516Z,0.83
2023-05-10T08:50:40.474Z,0.80
2023-05-10T08:53:11.222Z,0.60
2023-05-10T08:55:38.640Z,0.69
2023-05-10T08:58:10.065Z,0.77
2023-05-10T09:00:37.327Z,0.93
2023-05-10T09:03:05.812Z,0.87
2023-05-10T09:05:32.672Z,0.84
2023-05-10T09:07:59.362Z,0.87
2023-05-10T09:10:27.709Z,0.93
2023-05-10T09:12:54.711Z,1.17
2023-05-10T09:15:21.258Z,1.45
2023-05-10T09:17:49.313Z,1.33
2023-05-10T09:20:15.977Z,1.33
2023-05-10T09:22:42.481Z,1.38
2023-05-10T09:25:11.433Z,1.38
2023-05-10T09:27:44.734Z,1.27
2023-05-10T09:30:11.772Z,1.19
2023-05-10T09:32:45.964Z,1.01
2023-05-10T09:35:16.555Z,1.26
2023-05-10T09:37:45.953Z,1.14
2023-05-10T09:40:17.659Z,1.20
2023-05-10T09:42:56.436Z,1.21
2023-05-10T09:45:25.533Z,1.55
2023-05-10T09:47:52.278Z,1.19
2023-05-10T09:50:20.360Z,1.34
2023-05-10T09:52:49.788Z,1.56
2023-05-10T09:55:17.226Z,1.30
2023-05-10T09:57:44.146Z,1.30
2023-05-10T10:00:10.962Z,1.25
2023-05-10T10:02:37.540Z,1.26
2023-05-10T10:05:04.489Z,1.39
2023-05-10T10:07:31.419Z,1.41
2023-05-10T10:10:00.126Z,1.76
2023-05-10T10:12:26.610Z,1.84
2023-05-10T10:14:54.242Z,1.73
2023-05-10T10:17:21.413Z,1.75
2023-05-10T10:19:49.705Z,1.89
2023-05-10T10:22:16.196Z,1.70
2023-05-10T10:24:42.742Z,1.71
2023-05-10T10:27:37.106Z,1.42
2023-05-10T10:30:31.495Z,1.28
2023-05-10T10:33:10.175Z,1.79
2023-05-10T10:35:41.009Z,1.09
2023-05-10T10:38:09.492Z,1.29
2023-05-10T10:40:36.146Z,1.25
2023-05-10T10:43:28.156Z,1.36
2023-05-10T10:46:11.262Z,1.88
2023-05-10T10:48:37.968Z,1.27
2023-05-10T10:51:04.448Z,1.51
2023-05-10T10:53:31.208Z,1.37
2023-05-10T10:56:12.946Z,1.47
2023-05-10T10:58:40.683Z,1.38
2023-05-10T11:01:34.254Z,1.56
2023-05-10T11:04:03.902Z,1.34
2023-05-10T11:06:31.776Z,1.39
2023-05-10T11:09:18.540Z,1.45
2023-05-10T11:11:55.483Z,1.53
2023-05-10T11:14:22.996Z,1.45
2023-05-10T11:16:49.735Z,1.42
2023-05-10T11:19:17.996Z,1.53
2023-05-10T11:22:06.005Z,1.37
2023-05-10T11:24:34.549Z,1.74
2023-05-10T11:27:01.224Z,1.38
2023-05-10T11:29:27.761Z,1.17
2023-05-10T11:31:58.924Z,1.10
2023-05-10T11:34:27.452Z,0.99
2023-05-10T11:36:57.001Z,0.89
2023-05-10T11:39:28.566Z,0.92
2023-05-10T11:41:55.448Z,0.90
2023-05-10T11:44:21.957Z,0.69
2023-05-10T11:46:50.057Z,0.78
2023-05-10T11:49:16.881Z,0.84
2023-05-10T11:51:43.453Z,0.88
2023-05-10T11:54:12.141Z,0.80
2023-05-10T11:56:45.194Z,0.91
2023-05-10T11:59:11.762Z,0.92
2023-05-10T12:01:38.469Z,1.01
2023-05-10T12:04:05.277Z,0.92
2023-05-10T12:06:36.478Z,0.91
2023-05-10T12:09:07.663Z,1.01
2023-05-10T12:11:40.082Z,0.98
2023-05-10T12:14:13.508Z,0.91
2023-05-10T12:16:40.203Z,0.73
2023-05-10T12:19:06.810Z,0.82
2023-05-10T12:21:42.809Z,0.77
2023-05-10T12:24:09.319Z,0.90
2023-05-10T12:26:36.091Z,0.78
2023-05-10T12:29:17.365Z,0.90
2023-05-10T12:31:51.495Z,0.78
2023-05-10T12:34:47.401Z,0.74
2023-05-10T12:37:13.975Z,0.76
2023-05-10T12:39:45.208Z,0.69
2023-05-10T12:42:12.273Z,0.70
2023-05-10T12:44:39.922Z,0.65
2023-05-10T12:47:06.484Z,0.54
2023-05-10T12:49:33.042Z,0.65
2023-05-10T12:51:59.550Z,0.77
2023-05-10T12:54:26.224Z,0.75
2023-05-10T12:56:52.947Z,0.99
2023-05-10T12:59:19.491Z,0.86
2023-05-10T13:01:46.261Z,0.65
2023-05-10T13:04:13.097Z,0.73
2023-05-10T13:06:39.820Z,0.93
2023-05-10T13:09:06.450Z,0.91
2023-05-10T13:11:33.353Z,0.66
2023-05-10T13:13:59.950Z,0.67
2023-05-10T13:16:26.507Z,0.78
2023-05-10T13:18:53.121Z,0.79
2023-05-10T13:21:19.742Z,0.77
2023-05-10T13:23:46.227Z,0.73
2023-05-10T13:26:12.729Z,0.88
2023-05-10T13:28:39.246Z,0.70
2023-05-10T13:31:05.822Z,0.55
2023-05-10T13:33:32.391Z,1.16
2023-05-10T13:35:58.889Z,0.81
2023-05-10T13:38:25.408Z,0.43
2023-05-10T13:40:52.041Z,0.34
2023-05-10T13:43:18.633Z,0.31
2023-05-10T13:45:45.175Z,0.50
2023-05-10T13:48:11.725Z,0.36
2023-05-10T13:50:38.345Z,0.31
2023-05-10T13:53:04.864Z,0.36
2023-05-10T13:55:31.335Z,0.28
2023-05-10T13:57:57.840Z,0.32
2023-05-10T14:00:24.377Z,0.22
2023-05-10T14:02:51.008Z,0.44
2023-05-10T14:05:19.888Z,0.36
2023-05-10T14:07:48.786Z,0.35
2023-05-10T14:10:15.371Z,0.35
2023-05-10T14:12:41.866Z,0.41
2023-05-10T14:15:08.881Z,0.42
2023-05-10T14:17:35.584Z,0.54
2023-05-10T14:20:02.347Z,0.56
2023-05-10T14:22:28.800Z,0.47
2023-05-10T14:24:55.293Z,0.55
2023-05-10T14:27:21.815Z,0.68
2023-05-10T14:29:48.654Z,0.60
2023-05-10T14:32:15.200Z,0.57
2023-05-10T14:34:41.753Z,0.47
2023-05-10T14:37:08.253Z,0.58
2023-05-10T14:39:34.999Z,0.63
2023-05-10T14:42:01.496Z,0.69
2023-05-10T14:44:28.042Z,0.62
2023-05-10T14:46:54.575Z,0.53
2023-05-10T14:49:21.059Z,0.67
2023-05-10T14:51:47.510Z,0.71
2023-05-10T14:54:13.977Z,0.65
2023-05-10T14:56:40.469Z,0.67
2023-05-10T14:59:06.976Z,1.04
2023-05-10T15:01:34.544Z,0.80
2023-05-10T15:04:01.614Z,0.61
2023-05-10T15:06:33.446Z,0.75
2023-05-10T15:09:00.041Z,0.73
2023-05-10T15:11:26.574Z,0.68
2023-05-10T15:13:53.079Z,0.59
2023-05-10T15:16:19.624Z,0.48
2023-05-10T15:18:46.194Z,0.63
2023-05-10T15:21:12.771Z,0.75
2023-05-10T15:23:41.958Z,0.72
2023-05-10T15:26:08.472Z,0.74
2023-05-10T15:28:34.974Z,0.71
2023-05-10T15:31:01.711Z,0.68
2023-05-10T15:33:28.221Z,0.99
2023-05-10T15:35:54.835Z,0.73
2023-05-10T15:38:21.322Z,0.60
2023-05-10T15:40:47.795Z,0.63
2023-05-10T15:43:14.698Z,0.55
2023-05-10T15:45:41.240Z,0.64
2023-05-10T15:48:07.764Z,0.61
2023-05-10T15:50:34.312Z,0.71
2023-05-10T15:53:00.799Z,0.94
2023-05-10T15:55:27.345Z,0.98
2023-05-10T15:57:53.833Z,0.83
2023-05-10T16:00:20.417Z,1.12
2023-05-10T16:02:47.052Z,0.80
2023-05-10T16:05:13.611Z,0.71
2023-05-10T16:07:40.084Z,0.86
2023-05-10T16:10:08.294Z,1.00
2023-05-10T16:12:34.761Z,0.82
2023-05-10T16:15:01.235Z,1.00
2023-05-10T16:17:28.020Z,0.83
2023-05-10T16:19:54.547Z,0.86
2023-05-10T16:22:26.206Z,0.83
2023-05-10T16:24:53.033Z,1.15
2023-05-10T16:27:19.996Z,0.91
2023-05-10T16:29:48.798Z,0.90
2023-05-10T16:32:15.310Z,0.94
2023-05-10T16:34:47.903Z,0.96
2023-05-10T16:37:14.396Z,0.99
2023-05-10T16:39:40.896Z,1.12
2023-05-10T16:42:07.488Z,0.82
2023-05-10T16:44:33.973Z,1.48
2023-05-10T16:47:00.511Z,0.70
2023-05-10T16:49:27.037Z,0.84
2023-05-10T16:51:53.593Z,0.71
2023-05-10T16:54:20.483Z,0.85
2023-05-10T16:56:47.074Z,0.74
2023-05-10T16:59:13.697Z,1.01
2023-05-10T17:01:40.221Z,0.72
2023-05-10T17:04:06.857Z,0.78
2023-05-10T17:06:35.633Z,0.84
2023-05-10T17:09:02.117Z,0.83
2023-05-10T17:11:28.620Z,1.08
2023-05-10T17:13:55.127Z,1.09
2023-05-10T17:16:21.667Z,1.02
2023-05-10T17:18:48.254Z,1.20
2023-05-10T17:21:14.805Z,1.25
2023-05-10T17:23:41.298Z,1.46
2023-05-10T17:26:07.933Z,1.03
2023-05-10T17:28:35.084Z,1.08
2023-05-10T17:31:01.861Z,1.09
2023-05-10T17:33:28.326Z,1.01
2023-05-10T17:35:55.800Z,1.02
2023-05-10T17:38:22.295Z,0.84
2023-05-10T17:40:48.803Z,0.76
2023-05-10T17:43:15.324Z,0.92
2023-05-10T17:45:41.868Z,1.01
2023-05-10T17:48:08.402Z,0.88
2023-05-10T17:50:34.906Z,0.77
2023-05-10T17:53:01.430Z,0.81
2023-05-10T17:55:27.952Z,0.88
2023-05-10T17:57:54.481Z,0.82
2023-05-10T18:00:21.060Z,0.71
2023-05-10T18:02:47.652Z,0.77
2023-05-10T18:05:14.421Z,0.82
2023-05-10T18:07:41.019Z,0.75
2023-05-10T18:10:08.014Z,0.99
2023-05-10T18:12:34.547Z,0.78
2023-05-10T18:15:01.031Z,0.86
2023-05-10T18:17:27.830Z,1.01
2023-05-10T18:19:54.380Z,0.92
2023-05-10T18:22:20.870Z,1.10
2023-05-10T18:24:47.372Z,1.02
2023-05-10T18:27:13.861Z,1.13
2023-05-10T18:29:40.381Z,1.18
2023-05-10T18:32:06.905Z,1.24
2023-05-10T18:34:33.457Z,1.42
2023-05-10T18:37:03.050Z,1.51
2023-05-10T18:39:29.663Z,1.22
2023-05-10T18:41:56.139Z,1.37
2023-05-10T18:44:22.809Z,1.21
2023-05-10T18:46:49.290Z,1.25
2023-05-10T18:49:15.785Z,1.39
2023-05-10T18:51:42.254Z,1.23
2023-05-10T18:54:08.750Z,1.17
2023-05-10T18:56:35.342Z,1.14
2023-05-10T18:59:01.796Z,1.20
2023-05-10T19:01:28.420Z,1.12
2023-05-10T19:03:54.969Z,1.13
2023-05-10T19:06:21.477Z,1.13
2023-05-10T19:08:48.025Z,1.44
2023-05-10T19:11:14.532Z,1.15
2023-05-10T19:13:42.439Z,1.26
2023-05-10T19:16:13.472Z,1.35
2023-05-10T19:18:40.168Z,1.55
2023-05-10T19:21:09.738Z,1.48
2023-05-10T19:23:37.632Z,1.67
2023-05-10T19:26:04.606Z,1.71
2023-05-10T19:28:31.622Z,1.72
2023-05-10T19:30:58.166Z,1.89
2023-05-10T19:33:24.845Z,1.91
2023-05-10T19:35:51.563Z,1.47
2023-05-10T19:38:25.063Z,1.73
2023-05-10T19:40:54.533Z,1.60
2023-05-10T19:43:22.058Z,1.79
2023-05-10T19:45:48.576Z,1.81
2023-05-10T19:48:15.108Z,2.18
2023-05-10T19:50:41.577Z,2.28
2023-05-10T19:53:08.085Z,2.16
2023-05-10T19:55:34.792Z,2.22
2023-05-10T19:58:01.332Z,1.90
2023-05-10T20:00:28.575Z,1.81
2023-05-10T20:02:55.463Z,1.89
2023-05-10T20:05:22.098Z,2.01
2023-05-10T20:07:48.628Z,1.90
2023-05-10T20:10:19.141Z,1.99
2023-05-10T20:12:47.702Z,1.80
2023-05-10T20:15:14.282Z,1.88
2023-05-10T20:17:40.853Z,1.71
2023-05-10T20:20:07.550Z,1.84
2023-05-10T20:22:34.061Z,1.90
2023-05-10T20:25:00.560Z,1.72
2023-05-10T20:27:27.028Z,1.86
2023-05-10T20:29:53.519Z,2.12
2023-05-10T20:32:20.018Z,1.81
2023-05-10T20:34:46.552Z,1.92
2023-05-10T20:37:18.549Z,2.31
2023-05-10T20:39:45.115Z,2.00
2023-05-10T20:42:11.623Z,1.81
2023-05-10T20:44:38.085Z,1.77
2023-05-10T20:47:04.964Z,1.57
2023-05-10T20:49:31.496Z,1.76
2023-05-10T20:51:57.978Z,1.52
2023-05-10T20:54:24.476Z,1.58
2023-05-10T20:56:51.423Z,1.86
2023-05-10T20:59:18.704Z,1.80
2023-05-10T21:01:45.566Z,1.43
2023-05-10T21:04:21.579Z,1.24
2023-05-10T21:06:48.171Z,1.41
2023-05-10T21:09:14.658Z,1.50
2023-05-10T21:11:41.205Z,1.58
2023-05-10T21:14:07.725Z,1.43
2023-05-10T21:16:34.428Z,1.44
2023-05-10T21:19:01.080Z,1.54
2023-05-10T21:21:27.936Z,1.73
2023-05-10T21:23:54.505Z,1.80
2023-05-10T21:26:21.036Z,1.82
2023-05-10T21:28:47.517Z,1.99
2023-05-10T21:31:14.104Z,1.71
2023-05-10T21:33:40.612Z,1.70
2023-05-10T21:36:07.200Z,1.65
2023-05-10T21:38:33.722Z,1.66
2023-05-10T21:41:00.936Z,1.53
2023-05-10T21:43:27.559Z,1.46
2023-05-10T21:45:54.067Z,1.31
2023-05-10T21:48:20.624Z,1.45
2023-05-10T21:50:47.101Z,1.41
2023-05-10T21:53:13.615Z,1.42
2023-05-10T21:55:42.999Z,1.22
2023-05-10T21:58:09.608Z,1.32
2023-05-10T22:00:36.161Z,1.42
2023-05-10T22:03:05.302Z,1.27
2023-05-10T22:05:34.427Z,1.35
2023-05-10T22:08:00.960Z,1.30
2023-05-10T22:10:27.574Z,1.66
2023-05-10T22:12:54.096Z,1.40
2023-05-10T22:15:20.641Z,1.37
2023-05-10T22:17:47.177Z,1.30
2023-05-10T22:20:13.769Z,1.28
2023-05-10T22:22:40.286Z,1.37
2023-05-10T22:25:07.050Z,1.67
2023-05-10T22:27:33.725Z,1.53
2023-05-10T22:30:00.220Z,1.38
2023-05-10T22:32:26.780Z,1.53
2023-05-10T22:34:53.346Z,1.44
2023-05-10T22:37:19.909Z,1.47
2023-05-10T22:39:46.532Z,1.56
2023-05-10T22:42:13.105Z,1.59
2023-05-10T22:44:39.637Z,1.41
2023-05-10T22:47:06.199Z,1.37
2023-05-10T22:49:34.165Z,1.43
2023-05-10T22:52:01.024Z,1.59
2023-05-10T22:54:27.540Z,1.51
2023-05-10T22:56:54.606Z,1.61
2023-05-10T22:59:21.358Z,1.31
2023-05-10T23:01:48.518Z,1.42
2023-05-10T23:04:16.804Z,1.39
2023-05-10T23:06:43.336Z,1.43
2023-05-10T23:09:09.843Z,1.51
2023-05-10T23:11:36.406Z,1.50
2023-05-10T23:14:03.334Z,1.59
2023-05-10T23:16:29.939Z,1.63
2023-05-10T23:18:56.564Z,1.35
2023-05-10T23:21:23.110Z,1.22
2023-05-10T23:23:50.028Z,1.32
2023-05-10T23:26:16.607Z,1.37
2023-05-10T23:28:43.098Z,1.39
2023-05-10T23:31:09.699Z,1.28
2023-05-10T23:33:36.194Z,1.35
2023-05-10T23:36:02.663Z,1.14
2023-05-10T23:38:29.161Z,1.08
2023-05-10T23:40:55.682Z,1.11
2023-05-10T23:43:22.249Z,1.23
2023-05-10T23:45:56.326Z,1.24
2023-05-10T23:48:23.493Z,1.11
2023-05-10T23:50:50.134Z,1.24
2023-05-10T23:53:16.864Z,1.28
2023-05-10T23:55:43.398Z,1.12
2023-05-10T23:58:09.978Z,1.06
